createdAt,value
2022-08-09T00:01:23.050Z,49.70
2022-08-09T00:04:03.473Z,49.34
2022-08-09T00:06:38.678Z,49.75
2022-08-09T00:09:13.366Z,50.43
2022-08-09T00:12:03.697Z,50.22
2022-08-09T00:14:38.204Z,50.51
2022-08-09T00:17:06.968Z,50.22
2022-08-09T00:19:35.551Z,50.37
2022-08-09T00:22:04.426Z,50.50
2022-08-09T00:24:32.723Z,50.29
2022-08-09T00:27:01.952Z,50.08
2022-08-09T00:30:09.952Z,50.88
2022-08-09T00:32:26.976Z,50.32
2022-08-09T00:35:05.516Z,50.28
2022-08-09T00:37:33.489Z,50.66
2022-08-09T00:40:12.293Z,49.91
2022-08-09T00:44:10.445Z,51.72
2022-08-09T00:45:34.922Z,50.75
2022-08-09T00:48:05.590Z,51.17
2022-08-09T00:50:33.728Z,50.79
2022-08-09T00:53:10.326Z,50.75
2022-08-09T00:56:05.130Z,50.64
2022-08-09T00:58:27.886Z,52.12
2022-08-09T01:00:59.019Z,52.14
2022-08-09T01:03:36.425Z,51.29
2022-08-09T01:06:17.560Z,51.82
2022-08-09T01:08:55.946Z,52.47
2022-08-09T01:11:39.665Z,51.45
2022-08-09T01:14:17.429Z,52.12
2022-08-09T01:16:51.009Z,52.21
2022-08-09T01:19:57.265Z,52.34
2022-08-09T01:22:46.758Z,52.11
2022-08-09T01:25:48.835Z,53.17
2022-08-09T01:28:22.564Z,52.80
2022-08-09T01:30:59.104Z,52.04
2022-08-09T01:33:35.195Z,52.26
2022-08-09T01:36:14.990Z,52.02
2022-08-09T01:38:47.890Z,52.45
2022-08-09T01:41:26.083Z,52.99
2022-08-09T01:44:04.968Z,52.59
2022-08-09T01:46:36.323Z,52.49
2022-08-09T01:49:14.981Z,53.72
2022-08-09T01:51:54.419Z,52.97
2022-08-09T01:54:30.238Z,52.15
2022-08-09T01:57:11.990Z,52.98
2022-08-09T01:59:51.521Z,52.60
2022-08-09T02:02:31.177Z,52.89
2022-08-09T02:05:05.439Z,52.95
2022-08-09T02:08:39.538Z,52.97
2022-08-09T02:10:56.887Z,53.13
2022-08-09T02:13:37.549Z,54.08
2022-08-09T02:16:11.438Z,53.50
2022-08-09T02:18:42.903Z,52.91
2022-08-09T02:21:22.090Z,53.60
2022-08-09T02:23:54.828Z,53.96
2022-08-09T02:26:27.664Z,53.53
2022-08-09T02:28:59.911Z,53.90
2022-08-09T02:31:35.583Z,53.69
2022-08-09T02:34:25.707Z,53.15
2022-08-09T02:37:05.340Z,53.27
2022-08-09T02:39:42.048Z,53.05
2022-08-09T02:42:17.197Z,53.51
2022-08-09T02:44:49.440Z,53.21
2022-08-09T02:47:20.045Z,54.47
2022-08-09T02:50:02.025Z,54.63
2022-08-09T02:52:37.499Z,53.62
2022-08-09T02:55:20.590Z,53.29
2022-08-09T02:58:00.260Z,53.96
2022-08-09T03:00:58.108Z,53.37
2022-08-09T03:04:13.204Z,54.40
2022-08-09T03:06:17.909Z,53.87
2022-08-09T03:08:48.284Z,53.27
2022-08-09T03:12:06.693Z,53.53
2022-08-09T03:14:10.055Z,53.21
2022-08-09T03:16:42.011Z,52.46
2022-08-09T03:19:52.865Z,52.65
2022-08-09T03:22:12.326Z,53.32
2022-08-09T03:25:16.153Z,52.68
2022-08-09T03:27:49.116Z,52.76
2022-08-09T03:30:29.638Z,52.84
2022-08-09T03:33:11.066Z,52.52
2022-08-09T03:36:11.346Z,53.36
2022-08-09T03:38:30.500Z,53.43
2022-08-09T03:40:58.610Z,54.44
2022-08-09T03:43:31.449Z,53.53
2022-08-09T03:46:27.283Z,53.05
2022-08-09T03:48:55.184Z,53.14
2022-08-09T03:51:56.535Z,53.30
2022-08-09T03:54:14.866Z,54.24
2022-08-09T03:56:46.652Z,54.95
2022-08-09T03:59:20.863Z,53.81
2022-08-09T04:01:56.599Z,53.08
2022-08-09T04:04:32.539Z,53.30
2022-08-09T04:07:04.967Z,54.02
2022-08-09T04:09:41.622Z,53.84
2022-08-09T04:12:30.976Z,53.57
2022-08-09T04:15:02.586Z,54.18
2022-08-09T04:17:42.420Z,55.32
2022-08-09T04:20:13.689Z,54.88
2022-08-09T04:22:44.294Z,55.37
2022-08-09T04:25:13.172Z,53.72
2022-08-09T04:27:49.008Z,55.13
2022-08-09T04:30:28.872Z,55.23
2022-08-09T04:32:56.955Z,55.09
2022-08-09T04:35:24.908Z,55.57
2022-08-09T04:37:57.029Z,54.28
2022-08-09T04:40:45.275Z,53.87
2022-08-09T04:43:15.720Z,54.49
2022-08-09T04:45:53.723Z,53.95
2022-08-09T04:48:23.886Z,53.74
2022-08-09T04:51:01.686Z,53.73
2022-08-09T04:53:31.358Z,53.55
2022-08-09T04:55:59.880Z,54.18
2022-08-09T04:58:29.903Z,53.71
2022-08-09T05:01:01.715Z,53.71
2022-08-09T05:03:40.798Z,53.05
2022-08-09T05:06:27.211Z,52.41
2022-08-09T05:09:00.487Z,51.51
2022-08-09T05:11:30.400Z,50.17
2022-08-09T05:13:58.817Z,49.09
2022-08-09T05:16:31.670Z,50.03
2022-08-09T05:19:00.724Z,49.64
2022-08-09T05:21:46.852Z,48.08
2022-08-09T05:24:15.922Z,47.63
2022-08-09T05:26:46.293Z,48.00
2022-08-09T05:29:21.318Z,47.26
2022-08-09T05:31:58.869Z,47.53
2022-08-09T05:34:31.067Z,46.62
2022-08-09T05:37:06.621Z,46.96
2022-08-09T05:39:43.867Z,46.79
2022-08-09T05:42:20.864Z,46.50
2022-08-09T05:44:52.211Z,44.76
2022-08-09T05:47:21.779Z,45.06
2022-08-09T05:50:29.934Z,45.33
2022-08-09T05:52:41.991Z,44.34
2022-08-09T05:55:20.621Z,44.30
2022-08-09T05:57:51.342Z,44.59
2022-08-09T06:00:28.963Z,44.03
2022-08-09T06:03:02.725Z,43.44
2022-08-09T06:05:57.073Z,43.54
2022-08-09T06:08:24.392Z,44.43
2022-08-09T06:10:55.415Z,42.88
2022-08-09T06:13:24.703Z,43.68
2022-08-09T06:15:52.981Z,44.12
2022-08-09T06:18:24.808Z,44.12
2022-08-09T06:20:58.433Z,43.78
2022-08-09T06:23:57.902Z,42.91
2022-08-09T06:26:21.113Z,43.47
2022-08-09T06:28:59.894Z,43.75
2022-08-09T06:31:39.828Z,43.63
2022-08-09T06:34:22.587Z,43.25
2022-08-09T06:36:59.039Z,42.84
2022-08-09T06:39:48.421Z,43.00
2022-08-09T06:42:24.415Z,43.37
2022-08-09T06:44:54.341Z,44.04
2022-08-09T06:47:23.584Z,43.38
2022-08-09T06:50:13.637Z,44.54
2022-08-09T06:52:46.920Z,43.83
2022-08-09T06:55:17.408Z,43.59
2022-08-09T06:58:03.388Z,43.95
2022-08-09T07:00:55.528Z,43.82
2022-08-09T07:03:27.652Z,43.83
2022-08-09T07:06:03.513Z,43.41
2022-08-09T07:08:37.193Z,43.70
2022-08-09T07:11:08.152Z,44.14
2022-08-09T07:13:44.927Z,43.42
2022-08-09T07:16:41.008Z,43.17
2022-08-09T07:19:15.477Z,43.34
2022-08-09T07:21:57.928Z,43.19
2022-08-09T07:24:32.536Z,42.75
2022-08-09T07:27:27.263Z,42.81
2022-08-09T07:30:00.393Z,41.26
2022-08-09T07:32:32.974Z,41.58
2022-08-09T07:35:10.334Z,41.98
2022-08-09T07:37:45.626Z,41.27
2022-08-09T07:40:17.904Z,40.66
2022-08-09T07:42:50.099Z,41.03
2022-08-09T07:45:23.741Z,41.12
2022-08-09T07:48:25.810Z,41.23
2022-08-09T07:51:10.116Z,42.13
2022-08-09T07:54:04.991Z,42.80
2022-08-09T07:56:44.715Z,41.87
2022-08-09T07:59:33.690Z,42.52
2022-08-09T08:02:05.484Z,41.50
2022-08-09T08:04:34.272Z,41.02
2022-08-09T08:07:09.472Z,40.65
2022-08-09T08:09:55.287Z,40.17
2022-08-09T08:12:43.193Z,41.08
2022-08-09T08:15:16.928Z,41.29
2022-08-09T08:17:53.570Z,40.71
2022-08-09T08:20:28.692Z,40.58
2022-08-09T08:23:01.640Z,40.54
2022-08-09T08:25:43.815Z,39.82
2022-08-09T08:28:14.271Z,40.12
2022-08-09T08:30:44.554Z,39.34
2022-08-09T08:33:24.092Z,39.47
2022-08-09T08:36:00.479Z,38.81
2022-08-09T08:38:31.666Z,38.31
2022-08-09T08:41:01.777Z,38.87
2022-08-09T08:43:34.845Z,38.65
2022-08-09T08:46:31.974Z,38.23
2022-08-09T08:48:55.555Z,38.61
2022-08-09T08:51:23.968Z,37.98
2022-08-09T08:54:04.308Z,38.07
2022-08-09T08:56:37.888Z,37.68
2022-08-09T08:59:19.892Z,37.42
2022-08-09T09:01:52.983Z,37.93
2022-08-09T09:04:31.368Z,36.81
2022-08-09T09:07:10.062Z,36.89
2022-08-09T09:09:58.371Z,36.73
2022-08-09T09:12:34.246Z,36.91
2022-08-09T09:15:05.764Z,36.51
2022-08-09T09:17:48.571Z,36.74
2022-08-09T09:20:17.345Z,36.67
2022-08-09T09:22:56.797Z,36.25
2022-08-09T09:26:01.716Z,35.72
2022-08-09T09:29:02.875Z,35.03
2022-08-09T09:32:14.782Z,35.66
2022-08-09T09:34:14.621Z,35.45
2022-08-09T09:36:50.925Z,36.26
2022-08-09T09:39:25.597Z,36.96
2022-08-09T09:42:23.344Z,36.68
2022-08-09T09:45:00.366Z,36.44
2022-08-09T09:47:29.135Z,36.05
2022-08-09T09:50:14.613Z,35.51
2022-08-09T09:52:56.721Z,36.21
2022-08-09T09:55:32.474Z,35.80
2022-08-09T09:58:18.221Z,35.56
2022-08-09T10:00:54.441Z,36.30
2022-08-09T10:03:59.606Z,35.62
2022-08-09T10:06:39.169Z,36.45
2022-08-09T10:09:22.073Z,36.56
2022-08-09T10:12:11.731Z,36.13
2022-08-09T10:14:47.713Z,37.08
2022-08-09T10:17:50.470Z,36.90
2022-08-09T10:20:36.155Z,37.73
2022-08-09T10:23:22.139Z,37.11
2022-08-09T10:26:07.112Z,37.42
2022-08-09T10:28:40.235Z,37.22
2022-08-09T10:34:10.692Z,36.79
2022-08-09T10:36:49.947Z,37.25
2022-08-09T10:39:19.173Z,37.11
2022-08-09T10:41:48.305Z,37.11
2022-08-09T10:44:23.100Z,36.65
2022-08-09T10:47:01.130Z,36.50
2022-08-09T10:49:51.434Z,36.80
2022-08-09T10:52:44.932Z,36.67
2022-08-09T10:55:26.733Z,36.42
2022-08-09T10:57:59.857Z,37.34
2022-08-09T11:01:11.039Z,36.77
2022-08-09T11:03:49.883Z,37.28
2022-08-09T11:06:24.316Z,35.93
2022-08-09T11:08:53.818Z,37.20
2022-08-09T11:11:23.351Z,36.83
2022-08-09T11:14:32.046Z,35.81
2022-08-09T11:17:00.365Z,34.91
2022-08-09T11:20:10.480Z,35.64
2022-08-09T11:22:41.574Z,35.25
2022-08-09T11:25:12.082Z,34.94
2022-08-09T11:28:02.393Z,34.90
2022-08-09T11:30:38.100Z,35.40
2022-08-09T11:33:18.073Z,35.60
2022-08-09T11:35:50.047Z,34.97
2022-08-09T11:38:28.471Z,35.66
2022-08-09T11:41:13.779Z,34.89
2022-08-09T11:43:48.809Z,35.09
2022-08-09T11:46:26.662Z,35.41
2022-08-09T11:49:05.363Z,35.54
2022-08-09T11:53:03.321Z,35.70
2022-08-09T11:55:51.531Z,36.65
2022-08-09T11:58:19.974Z,36.67
2022-08-09T12:01:08.938Z,37.10
2022-08-09T12:03:57.484Z,36.49
2022-08-09T12:06:32.686Z,37.19
2022-08-09T12:09:19.184Z,37.68
2022-08-09T12:12:03.288Z,38.34
2022-08-09T12:14:40.461Z,38.36
2022-08-09T12:17:34.280Z,38.07
2022-08-09T12:20:21.548Z,38.39
2022-08-09T12:22:55.698Z,38.26
2022-08-09T12:25:32.017Z,38.58
2022-08-09T12:29:14.071Z,39.15
2022-08-09T12:31:10.958Z,38.94
2022-08-09T12:34:01.191Z,39.24
2022-08-09T12:36:33.852Z,38.04
2022-08-09T12:39:14.604Z,38.45
2022-08-09T12:41:42.703Z,38.08
2022-08-09T12:44:12.944Z,38.55
2022-08-09T12:46:49.208Z,38.71
2022-08-09T12:49:20.950Z,38.32
2022-08-09T12:52:01.024Z,38.46
2022-08-09T12:56:12.893Z,38.89
2022-08-09T12:57:46.481Z,39.39
2022-08-09T13:00:19.180Z,40.00
2022-08-09T13:02:58.264Z,39.29
2022-08-09T13:05:50.923Z,39.30
2022-08-09T13:08:21.319Z,39.43
2022-08-09T13:11:13.100Z,39.83
2022-08-09T13:14:38.001Z,39.28
2022-08-09T13:16:44.888Z,39.76
2022-08-09T13:20:06.822Z,39.16
2022-08-09T13:22:37.020Z,39.52
2022-08-09T13:25:13.727Z,39.58
2022-08-09T13:27:48.620Z,39.82
2022-08-09T13:30:49.487Z,39.83
2022-08-09T13:33:23.517Z,39.50
2022-08-09T13:36:24.232Z,39.33
2022-08-09T13:38:57.238Z,40.13
2022-08-09T13:41:56.471Z,39.69
2022-08-09T13:44:16.627Z,39.66
2022-08-09T13:47:29.521Z,38.90
2022-08-09T13:49:39.730Z,38.91
2022-08-09T13:52:24.972Z,39.43
2022-08-09T13:54:59.380Z,39.62
2022-08-09T13:57:35.554Z,39.38
2022-08-09T14:00:16.807Z,38.67
2022-08-09T14:03:04.013Z,39.03
2022-08-09T14:06:00.376Z,38.80
2022-08-09T14:08:28.076Z,38.44
2022-08-09T14:10:56.677Z,38.45
2022-08-09T14:14:14.657Z,38.40
2022-08-09T14:16:28.690Z,38.34
2022-08-09T14:18:58.147Z,38.07
2022-08-09T14:21:29.558Z,37.99
2022-08-09T14:24:01.339Z,37.56
2022-08-09T14:26:38.472Z,37.64
2022-08-09T14:30:04.196Z,36.42
2022-08-09T14:32:06.035Z,37.35
2022-08-09T14:34:41.186Z,37.42
2022-08-09T14:37:09.638Z,37.00
2022-08-09T14:39:47.791Z,37.68
2022-08-09T14:42:30.898Z,36.58
2022-08-09T14:46:39.558Z,36.47
2022-08-09T14:47:57.980Z,37.17
2022-08-09T14:50:30.372Z,37.63
2022-08-09T14:53:01.004Z,37.19
2022-08-09T14:55:32.626Z,37.08
2022-08-09T14:58:05.085Z,37.28
2022-08-09T15:00:36.731Z,37.74
2022-08-09T15:03:10.583Z,36.76
2022-08-09T15:05:39.581Z,36.84
2022-08-09T15:08:16.483Z,37.03
2022-08-09T15:11:00.855Z,37.17
2022-08-09T15:13:56.784Z,37.05
2022-08-09T15:16:20.699Z,36.92
2022-08-09T15:18:49.280Z,37.50
2022-08-09T15:21:57.310Z,36.88
2022-08-09T15:24:12.826Z,36.94
2022-08-09T15:26:45.493Z,37.23
2022-08-09T15:30:56.500Z,36.64
2022-08-09T15:32:04.839Z,37.42
2022-08-09T15:34:35.305Z,37.11
2022-08-09T15:37:37.212Z,37.25
2022-08-09T15:40:20.051Z,36.43
2022-08-09T15:42:50.891Z,36.65
2022-08-09T15:45:21.685Z,36.75
2022-08-09T15:48:03.344Z,36.87
2022-08-09T15:50:39.340Z,37.06
2022-08-09T15:53:32.657Z,37.36
2022-08-09T15:58:46.992Z,37.37
2022-08-09T16:01:15.093Z,36.81
2022-08-09T16:03:43.212Z,37.53
2022-08-09T16:06:27.396Z,37.12
2022-08-09T16:09:01.125Z,37.47
2022-08-09T16:11:33.321Z,37.58
2022-08-09T16:14:07.088Z,37.58
2022-08-09T16:16:38.095Z,37.53
2022-08-09T16:19:08.617Z,37.66
2022-08-09T16:21:37.843Z,37.56
2022-08-09T16:24:13.033Z,37.59
2022-08-09T16:26:56.767Z,37.29
2022-08-09T16:29:37.466Z,37.31
2022-08-09T16:32:19.294Z,36.99
2022-08-09T16:34:58.280Z,37.18
2022-08-09T16:37:55.658Z,37.06
2022-08-09T16:40:29.859Z,36.93
2022-08-09T16:43:04.845Z,37.35
2022-08-09T16:45:32.762Z,37.15
2022-08-09T16:48:42.194Z,36.83
2022-08-09T16:50:59.774Z,37.19
2022-08-09T16:53:36.258Z,37.06
2022-08-09T16:56:09.931Z,36.94
2022-08-09T16:58:42.744Z,36.47
2022-08-09T17:01:19.382Z,36.31
2022-08-09T17:03:51.679Z,36.85
2022-08-09T17:06:29.178Z,36.53
2022-08-09T17:09:17.822Z,36.70
2022-08-09T17:11:52.627Z,36.63
2022-08-09T17:14:27.985Z,36.69
2022-08-09T17:17:03.869Z,36.47
2022-08-09T17:20:29.288Z,36.07
2022-08-09T17:22:49.506Z,36.37
2022-08-09T17:25:18.090Z,36.21
2022-08-09T17:27:48.698Z,36.38
2022-08-09T17:30:20.419Z,36.69
2022-08-09T17:32:48.575Z,36.95
2022-08-09T17:35:16.410Z,36.65
2022-08-09T17:38:12.863Z,36.45
2022-08-09T17:40:34.642Z,36.54
2022-08-09T17:43:32.731Z,36.68
2022-08-09T17:46:02.633Z,36.31
2022-08-09T17:48:39.234Z,36.12
2022-08-09T17:51:18.779Z,36.53
2022-08-09T17:53:54.792Z,36.42
2022-08-09T17:56:35.547Z,36.55
2022-08-09T17:59:09.146Z,37.16
2022-08-09T18:02:03.475Z,37.16
2022-08-09T18:04:28.016Z,36.95
2022-08-09T18:06:56.015Z,36.78
2022-08-09T18:09:40.935Z,36.70
2022-08-09T18:12:19.434Z,36.97
2022-08-09T18:14:54.753Z,36.47
2022-08-09T18:18:01.435Z,36.38
2022-08-09T18:20:55.833Z,36.66
2022-08-09T18:23:05.106Z,36.54
2022-08-09T18:25:53.134Z,36.65
2022-08-09T18:30:34.665Z,36.93
2022-08-09T18:31:12.242Z,37.08
2022-08-09T18:33:40.707Z,36.23
2022-08-09T18:36:14.154Z,37.28
2022-08-09T18:38:57.505Z,36.77
2022-08-09T18:41:28.801Z,36.31
2022-08-09T18:43:58.046Z,36.77
2022-08-09T18:46:51.471Z,36.18
2022-08-09T18:49:27.054Z,37.03
2022-08-09T18:51:59.534Z,36.63
2022-08-09T18:54:28.823Z,36.61
2022-08-09T18:57:05.440Z,36.70
2022-08-09T18:59:43.830Z,36.22
2022-08-09T19:02:18.502Z,35.86
2022-08-09T19:05:04.294Z,36.42
2022-08-09T19:07:36.056Z,36.67
2022-08-09T19:10:15.505Z,36.38
2022-08-09T19:13:18.567Z,36.57
2022-08-09T19:15:35.679Z,36.98
2022-08-09T19:18:07.282Z,37.33
2022-08-09T19:20:45.486Z,37.29
2022-08-09T19:24:37.882Z,36.96
2022-08-09T19:26:13.967Z,36.76
2022-08-09T19:28:48.820Z,37.11
2022-08-09T19:31:17.148Z,37.43
2022-08-09T19:33:44.937Z,37.85
2022-08-09T19:36:13.754Z,37.23
2022-08-09T19:38:42.886Z,37.14
2022-08-09T19:41:10.749Z,37.32
2022-08-09T19:44:02.088Z,37.33
2022-08-09T19:46:34.951Z,37.79
2022-08-09T19:50:09.906Z,37.80
2022-08-09T19:51:57.046Z,38.03
2022-08-09T19:54:25.706Z,38.05
2022-08-09T19:56:55.057Z,38.28
2022-08-09T19:59:58.546Z,38.70
2022-08-09T20:02:17.365Z,39.24
2022-08-09T20:05:02.164Z,38.46
2022-08-09T20:07:59.097Z,38.51
2022-08-09T20:10:34.286Z,39.10
2022-08-09T20:13:06.905Z,38.62
2022-08-09T20:16:37.175Z,38.98
2022-08-09T20:18:27.605Z,39.10
2022-08-09T20:20:59.845Z,39.42
2022-08-09T20:23:38.579Z,39.82
2022-08-09T20:26:10.111Z,39.64
2022-08-09T20:28:48.801Z,39.41
2022-08-09T20:31:18.696Z,40.08
2022-08-09T20:33:46.974Z,40.20
2022-08-09T20:36:27.077Z,39.56
2022-08-09T20:39:28.952Z,40.41
2022-08-09T20:41:43.461Z,40.44
2022-08-09T20:44:11.160Z,40.36
2022-08-09T20:46:42.859Z,40.26
2022-08-09T20:49:15.730Z,41.04
2022-08-09T20:51:50.776Z,40.09
2022-08-09T20:54:19.103Z,40.56
2022-08-09T20:56:49.531Z,40.73
2022-08-09T20:59:50.134Z,40.21
2022-08-09T21:02:18.327Z,40.65
2022-08-09T21:05:54.935Z,40.07
2022-08-09T21:07:40.433Z,40.40
2022-08-09T21:10:11.551Z,40.00
2022-08-09T21:12:39.550Z,39.67
2022-08-09T21:15:12.768Z,41.15
2022-08-09T21:18:11.875Z,40.24
2022-08-09T21:20:30.712Z,40.37
2022-08-09T21:23:00.472Z,40.63
2022-08-09T21:25:55.706Z,39.66
2022-08-09T21:28:36.098Z,39.99
2022-08-09T21:31:18.181Z,40.51
2022-08-09T21:33:50.483Z,40.29
2022-08-09T21:36:20.920Z,40.07
2022-08-09T21:38:57.430Z,40.33
2022-08-09T21:42:05.569Z,39.81
2022-08-09T21:44:34.764Z,40.33
2022-08-09T21:47:07.486Z,40.00
2022-08-09T21:49:39.571Z,40.55
2022-08-09T21:52:14.440Z,40.02
2022-08-09T21:54:50.655Z,40.62
2022-08-09T21:57:38.943Z,41.11
2022-08-09T22:00:16.431Z,41.32
2022-08-09T22:02:44.383Z,41.30
2022-08-09T22:05:35.375Z,41.08
2022-08-09T22:08:13.856Z,41.03
2022-08-09T22:11:50.437Z,41.42
2022-08-09T22:13:34.850Z,41.17
2022-08-09T22:16:08.575Z,40.79
2022-08-09T22:18:38.576Z,40.85
2022-08-09T22:21:22.199Z,40.45
2022-08-09T22:23:59.212Z,41.17
2022-08-09T22:26:35.164Z,40.98
2022-08-09T22:29:10.415Z,40.67
2022-08-09T22:31:50.344Z,40.68
2022-08-09T22:34:28.572Z,40.54
2022-08-09T22:36:58.422Z,41.46
2022-08-09T22:39:55.512Z,41.33
2022-08-09T22:42:21.364Z,41.75
2022-08-09T22:45:00.423Z,42.01
2022-08-09T22:48:10.775Z,41.96
2022-08-09T22:50:32.689Z,41.59
2022-08-09T22:53:03.497Z,42.15
2022-08-09T22:56:00.674Z,42.25
2022-08-09T22:58:32.499Z,42.58
2022-08-09T23:01:06.015Z,42.63
2022-08-09T23:04:05.645Z,42.14
2022-08-09T23:06:35.689Z,42.62
2022-08-09T23:09:04.848Z,43.28
2022-08-09T23:11:32.845Z,42.42
2022-08-09T23:14:00.607Z,42.42
2022-08-09T23:16:28.221Z,43.24
2022-08-09T23:18:56.180Z,43.25
2022-08-09T23:21:25.081Z,43.25
2022-08-09T23:24:05.422Z,43.49
2022-08-09T23:26:36.036Z,43.01
2022-08-09T23:29:11.297Z,43.41
2022-08-09T23:31:39.280Z,42.83
2022-08-09T23:34:07.407Z,42.66
2022-08-09T23:36:36.037Z,42.77
2022-08-09T23:39:05.595Z,43.92
2022-08-09T23:41:34.127Z,43.84
2022-08-09T23:44:03.211Z,43.17
2022-08-09T23:46:31.995Z,43.08
2022-08-09T23:49:00.804Z,43.33
2022-08-09T23:51:28.813Z,43.16
2022-08-09T23:54:02.210Z,43.19
2022-08-09T23:56:53.723Z,43.08
2022-08-09T23:59:21.690Z,43.85
